Portada
METAR-TAF:

METAR-TAF

Aeroports :

Shenzhen, Xina

latitud: 22-33N, longitud: 114-06E, altitud: 18 m

Observació

L'informe es va fer fa 1 hora i 14 minuts, a les 00:00 UTC
Vent 14 kt del Nord-Est
Temperatura 21°C
Humitat 56%
Pressió 1021 hPa
Visibilitat 10 km o més
sense núvols per sota de 1500 mi sense presència de cumulonimbus.

METAR: ZGSZ 140000Z 04007MPS CAVOK 21/12 Q1021 NOSIG

Hora: 09:14 (01:14 UTC)

Pronòstic

L'informe es va fer fa 5 hores i 57 minuts, a les 19:17 UTC
Pronòstic vàlid del 14 a les 00 UTC al 14 a les 24 UTC
Vent 10 kt del Nord-Est amb ràfegues de 19 kt
Visibilitat: 6000 m
Escasses núvols a una alçada de 4000 ft
Evolucionant progressivament
l' 14 a les 06 UTC al 14 a les 08 UTC
Vent 8 kt del Oest/Sud-Oest
Evolucionant progressivament
l' 14 a les 11 UTC al 14 a les 12 UTC
Vent 8 kt del Est

TAF: ZGSZ 131917Z 1400/1424 04005G10MPS 6000 FEW040 TX27/1406Z TN19/1422Z BECMG 1406/1408 24004MPS BECMG 1411/1412 10004MPS

Observacions i pronòstics meteorològics de més de 4000 aeroports (METAR i TAF).

Les estacions disponibles són els punts grocs i vermells al mapa.

Posi el ratolí al punt desitjat per veure el nom de l'estació.

Feu clic per veure les observacions i els pronòstics meteorològics.

Per canviar el mapa: feu clic els botons verds amb una creu de color negre per apropar; al botó verd amb un guió per allunyar la imatge; o en les fletxes verdes per a mapes adjacents.


METAR-TAF: